Time;durP1;ratioP1;P1;durP2;ratioP2;P2;SDS_P1;SDS_P2;PMS_P1;PMS_P2;Temp;Humidity;BMP_temperature;BMP_pressure;BME280_temperature;BME280_humidity;BME280_pressure;Samples;Min_cycle;Max_cycle;Signal;HPM_P1;HPM_P2
2023/04/14 00:02:02;;;;;;;0.45;0.38;;;5.50;80.00;;;;;;5154409;27;20049;-73
2023/04/14 00:04:28;;;;;;;0.45;0.30;;;5.50;80.00;;;;;;5154287;27;20042;-73
2023/04/14 00:06:57;;;;;;;0.50;0.30;;;5.40;80.00;;;;;;5154224;27;20049;-73
2023/04/14 00:09:23;;;;;;;0.88;0.50;;;5.40;80.10;;;;;;5154104;27;20096;-73
2023/04/14 00:11:49;;;;;;;0.30;0.30;;;5.30;80.20;;;;;;5154278;27;20053;-73
2023/04/14 00:14:15;;;;;;;0.45;0.20;;;5.30;80.30;;;;;;5154444;27;20062;-73
2023/04/14 00:16:41;;;;;;;0.20;0.20;;;5.30;80.30;;;;;;5154080;27;20039;-73
2023/04/14 00:19:07;;;;;;;0.35;0.30;;;5.30;80.30;;;;;;5154091;27;20081;-73
2023/04/14 00:21:33;;;;;;;0.85;0.40;;;5.30;80.40;;;;;;5154143;27;20074;-73
2023/04/14 00:23:59;;;;;;;0.70;0.50;;;5.20;80.40;;;;;;5153895;27;20050;-73
2023/04/14 00:26:24;;;;;;;1.15;0.50;;;5.20;80.50;;;;;;5154102;27;20042;-73
2023/04/14 00:28:50;;;;;;;0.50;0.30;;;5.20;80.50;;;;;;5154075;27;20091;-73
2023/04/14 00:31:15;;;;;;;0.35;0.35;;;5.20;80.50;;;;;;5153980;27;20042;-73
2023/04/14 00:33:41;;;;;;;0.40;0.30;;;5.20;80.50;;;;;;5135823;27;20038;-73
2023/04/14 00:36:07;;;;;;;0.43;0.30;;;5.10;81.10;;;;;;5153889;27;20126;-73
2023/04/14 00:38:32;;;;;;;0.50;0.40;;;5.10;80.50;;;;;;5153752;27;20039;-73
2023/04/14 00:40:58;;;;;;;0.30;0.30;;;5.10;80.60;;;;;;5135290;27;20042;-73
2023/04/14 00:43:23;;;;;;;0.30;0.25;;;5.20;80.60;;;;;;5153825;27;20486;-73
2023/04/14 00:45:50;;;;;;;0.20;0.20;;;5.10;80.60;;;;;;5135197;27;20050;-73
2023/04/14 00:48:17;;;;;;;0.65;0.47;;;5.10;80.60;;;;;;5153584;27;20153;-73
2023/04/14 00:50:44;;;;;;;0.30;0.30;;;5.00;80.70;;;;;;5153475;27;20070;-73
2023/04/14 00:53:11;;;;;;;0.28;0.28;;;5.00;80.70;;;;;;5153917;27;20489;-73
2023/04/14 00:55:37;;;;;;;0.43;0.40;;;4.90;80.80;;;;;;5153544;27;20039;-73
2023/04/14 00:58:03;;;;;;;0.22;0.22;;;5.00;80.90;;;;;;5153617;27;20030;-73
2023/04/14 01:00:29;;;;;;;0.30;0.30;;;5.00;81.00;;;;;;5153919;27;20210;-73
2023/04/14 01:02:55;;;;;;;0.38;0.30;;;4.90;81.00;;;;;;5153902;27;20081;-74
2023/04/14 01:05:21;;;;;;;0.30;0.25;;;4.90;81.00;;;;;;5153877;27;20043;-73
2023/04/14 01:07:48;;;;;;;0.63;0.45;;;4.80;80.90;;;;;;5135171;27;20513;-73
2023/04/14 01:10:15;;;;;;;0.38;0.20;;;4.90;81.10;;;;;;5153831;27;20492;-73
2023/04/14 01:13:12;;;;;;;0.63;0.40;;;4.90;81.10;;;;;;5153290;27;20046;-73
2023/04/14 01:15:56;;;;;;;0.50;0.30;;;4.90;81.20;;;;;;5138510;27;20043;-73
2023/04/14 01:18:52;;;;;;;0.63;0.32;;;4.80;81.10;;;;;;5136474;27;20042;-73
2023/04/14 01:21:25;;;;;;;0.30;0.30;;;4.80;81.20;;;;;;5134615;27;20038;-72
2023/04/14 01:24:23;;;;;;;0.43;0.30;;;4.80;81.20;;;;;;5153137;27;20042;-73
2023/04/14 01:27:03;;;;;;;0.30;0.30;;;4.70;81.20;;;;;;5153005;27;20507;-73
2023/04/14 01:29:49;;;;;;;0.40;0.38;;;4.70;81.30;;;;;;5153000;27;20035;-73
2023/04/14 01:32:22;;;;;;;1.00;0.40;;;4.70;81.30;;;;;;5117376;27;20035;-73
2023/04/14 01:34:54;;;;;;;0.30;0.30;;;4.70;81.20;;;;;;5153050;27;20051;-73
2023/04/14 01:37:29;;;;;;;0.68;0.50;;;4.70;81.20;;;;;;5153458;27;20039;-73
2023/04/14 01:39:59;;;;;;;0.40;0.40;;;4.70;81.30;;;;;;5153184;27;20478;-73
2023/04/14 01:42:30;;;;;;;0.45;0.40;;;4.60;81.30;;;;;;5153118;27;20133;-73
2023/04/14 01:45:01;;;;;;;0.20;0.20;;;4.70;81.40;;;;;;5134513;27;20506;-73
2023/04/14 01:47:28;;;;;;;0.70;0.40;;;4.70;81.40;;;;;;5152899;27;20038;-73
2023/04/14 01:49:55;;;;;;;0.30;0.30;;;4.70;81.40;;;;;;5153299;27;20465;-73
2023/04/14 01:52:21;;;;;;;0.88;0.30;;;4.60;81.40;;;;;;5152818;27;20509;-73
2023/04/14 01:54:51;;;;;;;0.50;0.40;;;4.60;81.50;;;;;;5134264;27;20061;-73
2023/04/14 01:57:21;;;;;;;0.30;0.20;;;4.60;81.40;;;;;;5153147;27;20051;-73
2023/04/14 01:59:49;;;;;;;0.83;0.40;;;4.60;81.40;;;;;;5153119;27;20055;-73
2023/04/14 02:02:16;;;;;;;0.20;0.20;;;4.70;81.50;;;;;;5155886;27;20070;-73
2023/04/14 02:04:42;;;;;;;0.30;0.30;;;4.60;81.50;;;;;;5156317;27;20047;-73
2023/04/14 02:07:11;;;;;;;0.57;0.40;;;4.60;81.50;;;;;;5156062;27;20051;-73
2023/04/14 02:09:39;;;;;;;0.45;0.30;;;4.60;81.60;;;;;;5137657;27;20488;-73
2023/04/14 02:12:07;;;;;;;0.55;0.45;;;4.50;81.60;;;;;;5155902;27;20047;-73
2023/04/14 02:14:40;;;;;;;0.50;0.30;;;4.50;81.70;;;;;;5155913;27;20449;-73
2023/04/14 02:17:08;;;;;;;0.30;0.30;;;4.50;81.80;;;;;;5156136;27;20057;-73
2023/04/14 02:19:35;;;;;;;0.50;0.40;;;4.50;81.80;;;;;;5137424;27;20035;-73
2023/04/14 02:22:02;;;;;;;0.47;0.40;;;4.50;81.80;;;;;;5155892;27;20122;-73
2023/04/14 02:24:28;;;;;;;0.65;0.32;;;4.50;81.90;;;;;;5137491;27;20050;-73
2023/04/14 02:27:00;;;;;;;0.45;0.40;;;4.50;81.90;;;;;;5156355;27;20038;-73
2023/04/14 02:29:28;;;;;;;0.40;0.40;;;4.40;81.90;;;;;;5155802;27;20047;-73
2023/04/14 02:32:18;;;;;;;0.20;0.20;;;4.50;81.90;;;;;;5156338;27;20038;-73
2023/04/14 02:34:52;;;;;;;0.50;0.50;;;4.40;82.00;;;;;;5155571;27;20088;-73
2023/04/14 02:37:24;;;;;;;0.28;0.28;;;4.50;82.00;;;;;;5137099;27;20039;-72
2023/04/14 02:39:52;;;;;;;;;;;4.40;81.90;;;;;;5155980;27;20053;-73
2023/04/14 02:42:21;;;;;;;0.20;0.20;;;4.30;81.90;;;;;;5155515;27;19917;-73
2023/04/14 02:44:50;;;;;;;0.73;0.50;;;4.40;81.90;;;;;;5137362;27;20053;-73
2023/04/14 02:47:24;;;;;;;0.20;0.20;;;4.30;81.90;;;;;;5155738;27;20581;-73
2023/04/14 02:49:52;;;;;;;0.60;0.40;;;4.30;81.90;;;;;;5155855;27;20035;-73
2023/04/14 02:52:20;;;;;;;0.32;0.32;;;4.30;82.00;;;;;;5155450;27;20047;-73
2023/04/14 02:54:48;;;;;;;0.55;0.30;;;4.40;82.10;;;;;;5155497;27;20401;-73
2023/04/14 02:57:14;;;;;;;0.57;0.40;;;4.20;82.00;;;;;;5136799;27;20396;-73
2023/04/14 02:59:42;;;;;;;0.70;0.30;;;4.20;82.10;;;;;;5155456;27;20035;-73
2023/04/14 03:02:10;;;;;;;0.43;0.22;;;4.20;82.20;;;;;;5155381;27;20490;-71
2023/04/14 03:04:37;;;;;;;0.35;0.30;;;4.20;82.30;;;;;;5136654;27;20489;-72
2023/04/14 03:07:05;;;;;;;0.40;0.30;;;4.10;82.30;;;;;;5155204;27;20042;-72
2023/04/14 03:09:32;;;;;;;0.35;0.30;;;4.10;82.40;;;;;;5137010;27;20474;-72
2023/04/14 03:11:59;;;;;;;0.35;0.30;;;4.10;82.50;;;;;;5154932;27;20482;-72
2023/04/14 03:14:27;;;;;;;0.40;0.40;;;4.10;82.50;;;;;;5136538;27;20084;-71
2023/04/14 03:16:53;;;;;;;0.30;0.30;;;4.00;82.50;;;;;;5155672;27;20038;-72
2023/04/14 03:19:21;;;;;;;0.65;0.40;;;4.00;82.50;;;;;;5154950;27;20034;-72
2023/04/14 03:21:49;;;;;;;0.22;0.22;;;4.00;82.60;;;;;;5155067;27;20424;-73
2023/04/14 03:24:23;;;;;;;0.65;0.40;;;4.00;82.50;;;;;;5155006;27;20053;-72
2023/04/14 03:26:56;;;;;;;0.28;0.28;;;4.00;82.50;;;;;;5154914;27;20061;-73
2023/04/14 03:29:26;;;;;;;0.30;0.30;;;3.90;82.50;;;;;;5154767;27;20402;-72
2023/04/14 03:31:56;;;;;;;0.40;0.40;;;3.90;82.50;;;;;;5136282;27;20436;-72
2023/04/14 03:34:25;;;;;;;0.22;0.22;;;3.90;82.50;;;;;;5155265;27;20084;-73
2023/04/14 03:36:53;;;;;;;0.20;0.20;;;3.90;82.60;;;;;;5155344;27;20061;-72
2023/04/14 03:39:21;;;;;;;0.50;0.50;;;3.80;83.30;;;;;;5154871;27;20122;-72
2023/04/14 03:41:50;;;;;;;0.40;0.40;;;3.80;82.70;;;;;;5154656;27;20035;-72
2023/04/14 03:44:18;;;;;;;0.30;0.30;;;3.80;82.80;;;;;;5154986;27;20395;-72
2023/04/14 03:46:44;;;;;;;0.25;0.25;;;3.70;82.80;;;;;;5154633;27;20050;-72
2023/04/14 03:49:14;;;;;;;0.30;0.30;;;3.70;82.90;;;;;;5154549;27;20398;-72
2023/04/14 03:51:42;;;;;;;0.30;0.30;;;3.70;83.00;;;;;;5154611;27;20042;-72
2023/04/14 03:54:10;;;;;;;0.30;0.30;;;3.70;83.10;;;;;;5154445;27;20042;-72
2023/04/14 03:56:39;;;;;;;0.30;0.30;;;3.60;83.00;;;;;;5135940;27;20448;-72
2023/04/14 03:59:11;;;;;;;0.40;0.30;;;3.60;83.00;;;;;;5154357;27;20039;-72
2023/04/14 04:01:39;;;;;;;0.20;0.20;;;3.60;83.00;;;;;;5136868;27;20512;-72
2023/04/14 04:04:06;;;;;;;0.40;0.40;;;3.60;83.00;;;;;;5154564;27;20394;-72
2023/04/14 04:06:32;;;;;;;0.50;0.50;;;3.60;83.10;;;;;;5154542;27;20038;-72
2023/04/14 04:09:00;;;;;;;0.38;0.30;;;3.60;83.10;;;;;;5154527;27;20046;-72
2023/04/14 04:11:27;;;;;;;0.90;0.50;;;3.50;83.10;;;;;;5154320;27;20450;-72
2023/04/14 04:13:58;;;;;;;0.20;0.20;;;3.50;83.20;;;;;;5154175;27;20412;-72
2023/04/14 04:16:26;;;;;;;0.30;0.30;;;3.50;83.20;;;;;;5154273;27;20108;-72
2023/04/14 04:18:52;;;;;;;0.47;0.30;;;3.50;83.10;;;;;;5154251;27;20493;-72
2023/04/14 04:21:19;;;;;;;0.45;0.32;;;3.50;83.10;;;;;;5154425;27;20035;-72
2023/04/14 04:23:51;;;;;;;0.35;0.35;;;3.60;83.10;;;;;;5135537;27;20639;-72
2023/04/14 04:26:18;;;;;;;0.40;0.40;;;3.50;83.10;;;;;;5136899;27;20390;-72
2023/04/14 04:28:44;;;;;;;0.90;0.32;;;3.50;83.10;;;;;;5135850;27;20064;-72
2023/04/14 04:31:10;;;;;;;0.30;0.30;;;3.50;83.30;;;;;;5154694;27;20146;-72
2023/04/14 04:33:37;;;;;;;0.45;0.40;;;3.50;83.20;;;;;;5154553;27;20121;-72
2023/04/14 04:36:05;;;;;;;0.38;0.32;;;3.50;83.30;;;;;;5154209;27;20034;-72
2023/04/14 04:38:31;;;;;;;0.52;0.40;;;3.50;83.30;;;;;;5136480;27;20031;-72
2023/04/14 04:40:56;;;;;;;0.63;0.30;;;3.60;83.30;;;;;;5135713;27;20035;-72
2023/04/14 04:43:22;;;;;;;0.30;0.30;;;3.50;83.20;;;;;;5118814;27;20079;-73
2023/04/14 04:46:18;;;;;;;0.45;0.43;;;3.50;83.20;;;;;;5135568;27;20042;-73
2023/04/14 04:48:44;;;;;;;0.30;0.30;;;3.50;83.30;;;;;;5140118;27;20046;-73
2023/04/14 04:51:09;;;;;;;0.50;0.38;;;3.40;83.20;;;;;;5135377;27;20050;-73
2023/04/14 04:53:44;;;;;;;0.40;0.40;;;3.40;83.20;;;;;;5154041;27;20485;-73
2023/04/14 04:56:10;;;;;;;0.32;0.32;;;3.40;83.30;;;;;;5135258;27;20037;-73
2023/04/14 04:58:35;;;;;;;0.55;0.35;;;3.40;83.40;;;;;;5135332;27;20464;-73
2023/04/14 05:01:09;;;;;;;0.55;0.45;;;3.40;83.40;;;;;;5153710;27;20050;-73
2023/04/14 05:03:36;;;;;;;0.38;0.38;;;3.30;83.40;;;;;;5118363;27;20049;-73
2023/04/14 05:06:02;;;;;;;0.40;0.40;;;3.40;83.40;;;;;;5153815;27;20126;-73
2023/04/14 05:08:28;;;;;;;1.15;0.47;;;3.50;83.50;;;;;;5153609;27;20042;-73
2023/04/14 05:10:53;;;;;;;0.40;0.40;;;3.40;83.40;;;;;;5154023;27;20038;-73
2023/04/14 05:13:21;;;;;;;0.68;0.40;;;3.40;83.30;;;;;;5135513;27;20046;-72
2023/04/14 05:15:47;;;;;;;0.52;0.50;;;3.50;83.30;;;;;;5153957;27;20531;-72
2023/04/14 05:18:12;;;;;;;0.50;0.32;;;3.50;83.20;;;;;;5153504;27;20122;-73
2023/04/14 05:20:41;;;;;;;0.68;0.47;;;3.50;83.20;;;;;;5153556;27;20035;-72
2023/04/14 05:23:07;;;;;;;0.43;0.40;;;3.50;83.20;;;;;;5134722;27;20482;-72
2023/04/14 05:25:33;;;;;;;0.40;0.30;;;3.50;83.10;;;;;;5153415;27;20039;-72
2023/04/14 05:27:58;;;;;;;0.20;0.20;;;3.50;83.20;;;;;;5153468;27;20038;-72
2023/04/14 05:30:25;;;;;;;0.73;0.38;;;3.50;83.20;;;;;;5135487;27;20441;-72
2023/04/14 05:32:50;;;;;;;0.20;0.20;;;3.50;83.10;;;;;;5153621;27;20065;-72
2023/04/14 05:35:16;;;;;;;0.30;0.30;;;3.50;83.10;;;;;;5153375;27;20043;-72
2023/04/14 05:37:42;;;;;;;0.32;0.30;;;3.60;83.20;;;;;;5138325;27;20053;-72
2023/04/14 05:40:08;;;;;;;0.65;0.40;;;3.60;83.20;;;;;;5157167;27;20042;-72
2023/04/14 05:42:34;;;;;;;0.28;0.28;;;3.70;83.20;;;;;;5138336;27;20052;-72
2023/04/14 05:44:59;;;;;;;0.43;0.40;;;3.80;83.30;;;;;;5157536;27;20409;-72
2023/04/14 05:47:25;;;;;;;0.60;0.40;;;3.80;83.00;;;;;;5121261;27;20062;-72
2023/04/14 05:49:51;;;;;;;0.40;0.40;;;3.80;82.90;;;;;;5156744;27;20052;-72
2023/04/14 05:52:16;;;;;;;0.30;0.25;;;3.90;82.80;;;;;;5156865;27;20038;-72
2023/04/14 05:54:42;;;;;;;0.40;0.38;;;3.90;82.80;;;;;;5157236;27;20133;-73
2023/04/14 05:57:08;;;;;;;0.75;0.40;;;4.00;82.90;;;;;;5156557;27;20091;-72
2023/04/14 05:59:33;;;;;;;0.30;0.30;;;4.10;82.80;;;;;;5156604;27;20084;-72
2023/04/14 06:02:03;;;;;;;0.40;0.40;;;4.00;83.20;;;;;;5157309;27;20023;-72
2023/04/14 06:04:29;;;;;;;0.30;0.30;;;4.10;82.60;;;;;;5156465;27;20091;-72
2023/04/14 06:06:54;;;;;;;0.40;0.40;;;4.30;82.60;;;;;;5138041;27;20035;-72
2023/04/14 06:09:20;;;;;;;0.75;0.47;;;4.30;82.50;;;;;;5156992;27;20042;-72
2023/04/14 06:11:46;;;;;;;1.15;0.40;;;4.30;82.40;;;;;;5138117;27;20041;-72
2023/04/14 06:14:11;;;;;;;0.65;0.50;;;4.50;82.40;;;;;;5137671;27;20039;-71
2023/04/14 06:16:37;;;;;;;0.38;0.38;;;4.60;82.30;;;;;;5156401;27;20059;-73
2023/04/14 06:19:02;;;;;;;0.55;0.55;;;4.70;82.20;;;;;;5156279;27;20042;-73
2023/04/14 06:21:28;;;;;;;2.05;0.40;;;4.70;82.10;;;;;;5156558;27;20087;-72
2023/04/14 06:23:53;;;;;;;0.63;0.47;;;4.80;82.00;;;;;;5156331;27;20042;-72
2023/04/14 06:26:21;;;;;;;0.32;0.30;;;4.90;82.00;;;;;;5155963;27;20103;-72
2023/04/14 06:28:46;;;;;;;0.55;0.47;;;5.00;81.90;;;;;;5155873;27;20133;-73
2023/04/14 06:31:13;;;;;;;1.05;0.55;;;5.10;81.80;;;;;;5156387;27;20477;-72
2023/04/14 06:33:38;;;;;;;0.60;0.50;;;5.20;81.70;;;;;;5155990;27;20046;-73
2023/04/14 06:36:04;;;;;;;0.30;0.30;;;5.20;81.60;;;;;;5155974;27;20125;-72
2023/04/14 06:38:30;;;;;;;1.85;0.50;;;5.40;81.60;;;;;;5155982;27;20508;-72
2023/04/14 06:40:55;;;;;;;0.57;0.43;;;5.50;81.50;;;;;;5155994;27;20035;-73
2023/04/14 06:43:21;;;;;;;0.68;0.40;;;5.60;81.40;;;;;;5156090;27;20070;-73
2023/04/14 06:45:47;;;;;;;0.75;0.40;;;5.80;81.40;;;;;;5120676;27;20095;-73
2023/04/14 06:48:13;;;;;;;0.82;0.60;;;5.80;81.30;;;;;;5155618;27;20478;-73
2023/04/14 06:50:38;;;;;;;0.43;0.40;;;5.90;81.20;;;;;;5156149;27;20116;-73
2023/04/14 06:53:05;;;;;;;0.43;0.38;;;5.90;81.10;;;;;;5156266;27;20101;-73
2023/04/14 06:55:33;;;;;;;0.43;0.40;;;6.00;81.00;;;;;;5155665;27;20091;-73
2023/04/14 06:57:59;;;;;;;0.30;0.30;;;6.10;81.00;;;;;;5155722;27;20039;-73
2023/04/14 07:00:25;;;;;;;0.60;0.40;;;6.20;81.00;;;;;;5137108;27;20102;-72
2023/04/14 07:02:50;;;;;;;0.90;0.40;;;6.30;80.90;;;;;;5155923;27;20047;-73
2023/04/14 07:05:17;;;;;;;0.35;0.35;;;6.50;80.80;;;;;;5155604;27;20037;-73
2023/04/14 07:07:42;;;;;;;0.57;0.40;;;6.50;80.70;;;;;;5155388;27;20080;-73
2023/04/14 07:10:08;;;;;;;0.60;0.40;;;6.70;80.70;;;;;;5155811;27;20026;-72
2023/04/14 07:12:34;;;;;;;0.40;0.40;;;6.80;80.70;;;;;;5155793;27;20565;-73
2023/04/14 07:15:00;;;;;;;0.75;0.40;;;6.80;80.60;;;;;;5155753;27;20129;-73
2023/04/14 07:17:25;;;;;;;0.40;0.40;;;7.00;80.60;;;;;;5155196;27;20043;-73
2023/04/14 07:19:51;;;;;;;0.85;0.30;;;7.10;80.50;;;;;;5136448;27;20077;-71
2023/04/14 07:22:16;;;;;;;0.40;0.40;;;7.10;80.40;;;;;;5155225;27;20039;-70
2023/04/14 07:24:52;;;;;;;1.13;0.50;;;7.30;80.40;;;;;;5136509;27;20054;-72
2023/04/14 07:27:18;;;;;;;0.30;0.30;;;7.30;80.20;;;;;;5105317;27;20039;-71
2023/04/14 07:29:43;;;;;;;0.68;0.40;;;7.50;80.20;;;;;;5155020;27;20485;-72
2023/04/14 07:32:10;;;;;;;0.57;0.40;;;7.60;80.20;;;;;;5155263;27;20614;-72
2023/04/14 07:34:36;;;;;;;0.40;0.40;;;7.70;80.00;;;;;;5155269;27;20121;-71
2023/04/14 07:37:02;;;;;;;0.43;0.43;;;7.70;79.90;;;;;;5155003;27;20069;-71
2023/04/14 07:39:27;;;;;;;0.50;0.30;;;7.90;79.90;;;;;;5154947;27;20541;-71
2023/04/14 07:41:53;;;;;;;0.35;0.30;;;8.00;79.80;;;;;;5154919;27;20035;-71
2023/04/14 07:44:18;;;;;;;0.82;0.55;;;8.10;79.80;;;;;;5136425;27;20082;-71
2023/04/14 07:46:44;;;;;;;0.60;0.38;;;8.30;79.70;;;;;;5155018;27;20535;-71
2023/04/14 07:49:10;;;;;;;0.80;0.60;;;8.40;79.60;;;;;;5136470;27;20046;-70
2023/04/14 07:51:35;;;;;;;0.82;0.50;;;8.50;79.50;;;;;;5154874;27;20054;-70
2023/04/14 07:54:01;;;;;;;1.40;0.60;;;8.70;79.40;;;;;;5136195;27;20110;-71
2023/04/14 07:56:26;;;;;;;0.80;0.55;;;8.70;79.20;;;;;;5154606;27;20035;-71
2023/04/14 07:58:52;;;;;;;0.40;0.30;;;8.90;79.10;;;;;;5154088;27;20069;-70
2023/04/14 08:01:18;;;;;;;0.47;0.47;;;9.00;78.90;;;;;;5154489;27;20497;-70
2023/04/14 08:03:43;;;;;;;0.30;0.30;;;9.30;78.80;;;;;;5154438;27;20034;-71
2023/04/14 08:06:09;;;;;;;0.30;0.30;;;9.40;78.60;;;;;;5154491;27;20042;-70
2023/04/14 08:08:35;;;;;;;1.02;0.45;;;9.60;78.50;;;;;;5118856;27;20034;-70
2023/04/14 08:11:01;;;;;;;0.40;0.40;;;9.80;78.40;;;;;;5136121;27;20072;-70
2023/04/14 08:13:26;;;;;;;0.43;0.43;;;9.90;78.20;;;;;;5154423;27;20035;-71
2023/04/14 08:15:52;;;;;;;0.43;0.40;;;10.10;78.20;;;;;;5154500;27;20489;-71
2023/04/14 08:18:18;;;;;;;0.80;0.40;;;10.30;77.90;;;;;;5154730;27;20057;-70
2023/04/14 08:20:43;;;;;;;0.40;0.40;;;10.50;77.80;;;;;;5154439;27;20034;-71
2023/04/14 08:23:10;;;;;;;0.30;0.30;;;10.70;77.70;;;;;;5154175;27;20046;-70
2023/04/14 08:25:36;;;;;;;1.05;0.60;;;10.80;77.50;;;;;;5154760;27;20047;-72
2023/04/14 08:28:02;;;;;;;0.50;0.35;;;11.00;77.30;;;;;;5154252;27;20035;-71
2023/04/14 08:30:28;;;;;;;0.63;0.30;;;11.10;77.10;;;;;;5135642;27;20053;-71
2023/04/14 08:32:53;;;;;;;0.65;0.40;;;11.40;77.00;;;;;;5135527;27;20039;-71
2023/04/14 08:35:23;;;;;;;0.43;0.40;;;11.60;76.80;;;;;;5154105;27;20045;-69
2023/04/14 08:37:48;;;;;;;0.38;0.30;;;11.70;76.50;;;;;;5154424;27;20038;-71
2023/04/14 08:40:16;;;;;;;0.55;0.50;;;11.80;76.50;;;;;;5154090;27;20041;-72
2023/04/14 08:42:42;;;;;;;0.35;0.35;;;12.00;76.50;;;;;;5118634;27;20038;-72
2023/04/14 08:45:08;;;;;;;0.43;0.40;;;12.10;76.40;;;;;;5153999;27;20442;-72
2023/04/14 08:47:36;;;;;;;0.30;0.30;;;12.20;76.40;;;;;;5154335;27;20129;-71
2023/04/14 08:50:06;;;;;;;0.40;0.30;;;12.20;76.40;;;;;;5135201;27;20107;-71
2023/04/14 08:52:35;;;;;;;0.77;0.50;;;12.30;76.50;;;;;;5154407;27;20107;-69
2023/04/14 08:55:03;;;;;;;1.05;0.60;;;12.40;76.50;;;;;;5153654;27;20042;-71
2023/04/14 08:57:30;;;;;;;0.20;0.20;;;12.60;76.40;;;;;;5154339;27;20103;-71
2023/04/14 08:59:56;;;;;;;0.70;0.32;;;12.80;76.30;;;;;;5135356;27;20091;-70
2023/04/14 09:02:22;;;;;;;0.43;0.35;;;13.00;75.90;;;;;;5153905;27;20038;-70
2023/04/14 09:04:48;;;;;;;0.70;0.57;;;13.20;75.70;;;;;;5151587;27;20089;-73
2023/04/14 09:07:15;;;;;;;0.70;0.40;;;13.30;75.50;;;;;;5135187;27;20046;-71
2023/04/14 09:09:42;;;;;;;0.95;0.45;;;13.20;75.60;;;;;;5135237;27;20047;-71
2023/04/14 09:12:08;;;;;;;0.43;0.40;;;13.10;75.80;;;;;;5156636;27;20050;-70
2023/04/14 09:14:36;;;;;;;0.43;0.38;;;13.20;76.00;;;;;;5157600;27;20051;-69
2023/04/14 09:17:01;;;;;;;1.10;0.50;;;13.30;76.00;;;;;;5139004;27;20176;-71
2023/04/14 09:19:28;;;;;;;0.57;0.47;;;13.50;75.70;;;;;;5157542;27;20462;-71
2023/04/14 09:21:54;;;;;;;1.10;0.45;;;13.60;75.50;;;;;;5138938;27;20386;-71
2023/04/14 09:24:27;;;;;;;1.35;0.47;;;13.70;75.30;;;;;;5157052;27;20049;-71
2023/04/14 09:26:53;;;;;;;0.65;0.40;;;13.80;75.30;;;;;;5157146;27;20406;-71
2023/04/14 09:29:19;;;;;;;0.50;0.35;;;13.80;74.80;;;;;;5157119;27;20054;-68
2023/04/14 09:31:45;;;;;;;0.40;0.40;;;13.70;74.90;;;;;;5156994;27;20041;-72
2023/04/14 09:34:16;;;;;;;0.30;0.30;;;13.70;75.10;;;;;;5156892;27;20050;-72
2023/04/14 09:37:01;;;;;;;0.65;0.43;;;13.70;75.20;;;;;;5157124;27;20042;-72
2023/04/14 09:39:27;;;;;;;0.30;0.30;;;13.90;74.80;;;;;;5157589;27;20035;-71
2023/04/14 09:41:53;;;;;;;1.13;0.50;;;14.10;74.70;;;;;;5156908;27;20037;-72
2023/04/14 09:44:18;;;;;;;0.55;0.30;;;14.10;74.20;;;;;;5156969;27;20035;-72
2023/04/14 09:47:01;;;;;;;0.95;0.40;;;14.00;74.10;;;;;;5138273;27;20497;-72
2023/04/14 09:49:28;;;;;;;0.32;0.32;;;13.90;74.30;;;;;;5138989;27;20049;-73
2023/04/14 09:52:00;;;;;;;0.80;0.45;;;14.00;74.40;;;;;;5156635;27;20062;-72
2023/04/14 09:54:26;;;;;;;0.30;0.30;;;14.00;74.30;;;;;;5157015;27;20030;-72
2023/04/14 09:56:53;;;;;;;0.40;0.30;;;14.00;74.30;;;;;;5157211;27;20099;-73
2023/04/14 09:59:34;;;;;;;0.65;0.50;;;13.90;74.60;;;;;;5138582;27;20054;-72
2023/04/14 10:02:04;;;;;;;0.40;0.30;;;14.00;74.20;;;;;;5120943;27;20493;-73
2023/04/14 10:04:30;;;;;;;0.95;0.30;;;14.10;74.20;;;;;;5121269;27;20130;-73
2023/04/14 10:06:57;;;;;;;0.55;0.40;;;14.00;74.10;;;;;;5156556;27;20078;-74
2023/04/14 10:09:25;;;;;;;1.08;0.40;;;13.90;74.40;;;;;;5137904;27;20402;-70
2023/04/14 10:12:05;;;;;;;0.30;0.30;;;13.90;74.10;;;;;;5157032;27;20031;-71
2023/04/14 10:14:32;;;;;;;0.50;0.40;;;14.10;74.00;;;;;;5156723;27;20061;-71
2023/04/14 10:16:59;;;;;;;0.95;0.47;;;14.10;73.60;;;;;;5156835;27;20043;-70
2023/04/14 10:19:26;;;;;;;0.82;0.43;;;14.20;73.20;;;;;;5156651;27;20409;-70
2023/04/14 10:21:52;;;;;;;0.45;0.43;;;14.10;73.10;;;;;;5137736;27;20035;-70
2023/04/14 10:24:20;;;;;;;0.50;0.30;;;14.10;73.10;;;;;;5156554;27;20046;-70
2023/04/14 10:26:48;;;;;;;1.65;0.60;;;14.10;72.90;;;;;;5155774;27;20053;-70
2023/04/14 10:29:14;;;;;;;0.93;0.40;;;14.20;72.70;;;;;;5137699;27;20046;-70
2023/04/14 10:31:46;;;;;;;0.63;0.40;;;14.20;72.40;;;;;;5155764;27;20039;-74
2023/04/14 10:34:14;;;;;;;0.30;0.30;;;14.20;72.40;;;;;;5155818;27;20034;-72
2023/04/14 10:36:41;;;;;;;0.50;0.50;;;14.20;72.40;;;;;;5155728;27;20058;-72
2023/04/14 10:39:08;;;;;;;1.42;0.47;;;14.20;72.30;;;;;;5109525;27;20035;-71
2023/04/14 10:41:45;;;;;;;0.90;0.50;;;14.30;72.10;;;;;;5155693;27;20041;-70
2023/04/14 10:44:30;;;;;;;1.00;0.43;;;14.30;72.20;;;;;;5137438;27;20497;-72
2023/04/14 10:46:57;;;;;;;0.65;0.50;;;14.40;72.00;;;;;;5155905;27;20050;-71
2023/04/14 10:49:28;;;;;;;0.40;0.40;;;14.40;71.80;;;;;;5156423;27;20042;-71
2023/04/14 10:51:53;;;;;;;;;;;14.40;71.60;;;;;;5138283;27;20054;-71
2023/04/14 10:54:19;;;;;;;0.30;0.30;;;14.60;71.50;;;;;;5136906;27;20401;-69
2023/04/14 10:57:14;;;;;;;0.98;0.40;;;14.80;71.20;;;;;;5119813;27;20038;-71
2023/04/14 10:59:42;;;;;;;0.63;0.30;;;14.90;70.60;;;;;;5155532;27;20486;-70
2023/04/14 11:02:33;;;;;;;0.40;0.40;;;14.90;70.50;;;;;;5137129;27;20035;-68
2023/04/14 11:05:09;;;;;;;1.15;0.40;;;14.90;70.30;;;;;;5137032;27;20042;-73
2023/04/14 11:07:43;;;;;;;0.30;0.30;;;15.00;70.30;;;;;;5136899;27;20070;-69
2023/04/14 11:10:25;;;;;;;0.60;0.30;;;15.10;70.00;;;;;;5155402;27;20045;-68
2023/04/14 11:13:00;;;;;;;0.30;0.30;;;15.30;69.70;;;;;;5137124;27;20091;-69
2023/04/14 11:15:41;;;;;;;0.45;0.30;;;15.40;69.30;;;;;;5137701;27;20047;-68
2023/04/14 11:18:18;;;;;;;0.73;0.50;;;15.50;69.00;;;;;;5119827;27;20074;-69
2023/04/14 11:20:44;;;;;;;0.20;0.20;;;15.60;68.70;;;;;;5119633;27;20035;-69
2023/04/14 11:23:12;;;;;;;0.35;0.20;;;15.60;68.50;;;;;;5119540;27;20092;-69
2023/04/14 11:25:39;;;;;;;0.30;0.30;;;15.60;68.50;;;;;;5102661;27;20133;-70
2023/04/14 11:28:04;;;;;;;0.30;0.30;;;15.70;68.50;;;;;;5136706;27;20039;-70
2023/04/14 11:30:31;;;;;;;1.13;0.45;;;15.80;67.90;;;;;;5155345;27;20093;-69
2023/04/14 11:32:57;;;;;;;0.75;0.38;;;15.50;68.10;;;;;;5136097;27;20049;-68
2023/04/14 11:35:24;;;;;;;1.52;0.55;;;15.60;68.60;;;;;;5101788;27;20176;-72
2023/04/14 11:37:54;;;;;;;1.85;0.40;;;15.90;68.40;;;;;;5119150;27;20043;-68
2023/04/14 11:40:21;;;;;;;0.80;0.30;;;16.10;67.70;;;;;;5136703;27;20042;-69
2023/04/14 11:42:51;;;;;;;0.30;0.30;;;16.30;67.10;;;;;;5136532;27;20512;-69
2023/04/14 11:45:17;;;;;;;0.38;0.30;;;16.40;66.50;;;;;;5153190;27;20042;-69
2023/04/14 11:48:00;;;;;;;0.82;0.43;;;16.30;66.60;;;;;;5136288;27;20035;-68
2023/04/14 11:50:30;;;;;;;1.20;0.30;;;16.40;66.80;;;;;;5135733;27;20047;-68
2023/04/14 11:52:58;;;;;;;0.55;0.30;;;16.40;66.60;;;;;;5154565;27;20069;-69
2023/04/14 11:55:26;;;;;;;1.38;0.40;;;16.40;66.70;;;;;;5154660;27;20049;-69
2023/04/14 11:57:52;;;;;;;0.57;0.32;;;16.60;66.70;;;;;;5119336;27;20039;-68
2023/04/14 12:00:18;;;;;;;1.27;0.40;;;16.80;66.40;;;;;;5155152;27;20034;-69
2023/04/14 12:02:44;;;;;;;1.10;0.22;;;16.70;66.30;;;;;;5102130;27;20423;-69
2023/04/14 12:05:12;;;;;;;0.30;0.30;;;16.60;66.50;;;;;;5136097;27;20094;-69
2023/04/14 12:07:41;;;;;;;0.85;0.40;;;16.60;66.80;;;;;;5136305;27;20066;-69
2023/04/14 12:10:07;;;;;;;0.30;0.30;;;16.70;66.40;;;;;;5154549;27;20050;-70
2023/04/14 12:12:33;;;;;;;0.20;0.20;;;16.50;66.40;;;;;;5136035;27;20402;-70
2023/04/14 12:15:00;;;;;;;0.73;0.43;;;16.40;67.10;;;;;;5101875;27;20054;-71
2023/04/14 12:17:26;;;;;;;0.85;0.25;;;16.20;67.30;;;;;;5136738;27;20039;-70
2023/04/14 12:19:52;;;;;;;0.25;0.25;;;16.00;67.70;;;;;;5101905;27;20401;-71
2023/04/14 12:22:26;;;;;;;0.52;0.40;;;16.00;67.90;;;;;;5118533;27;20038;-71
2023/04/14 12:24:53;;;;;;;0.30;0.30;;;16.10;68.20;;;;;;5154491;27;20066;-71
2023/04/14 12:27:21;;;;;;;0.20;0.20;;;16.30;67.80;;;;;;5154056;27;20038;-69
2023/04/14 12:29:48;;;;;;;1.02;0.40;;;16.40;67.20;;;;;;5135970;27;20058;-69
2023/04/14 12:32:15;;;;;;;0.25;0.25;;;16.60;67.10;;;;;;5154588;27;20389;-69
2023/04/14 12:34:50;;;;;;;0.68;0.30;;;16.60;66.60;;;;;;5153879;27;20383;-69
2023/04/14 12:37:17;;;;;;;0.93;0.30;;;16.50;66.50;;;;;;5135554;27;20473;-69
2023/04/14 12:39:56;;;;;;;0.90;0.40;;;16.50;66.80;;;;;;5153985;27;20049;-69
2023/04/14 12:42:22;;;;;;;0.17;0.17;;;16.40;66.80;;;;;;5153927;27;20039;-69
2023/04/14 12:44:57;;;;;;;1.50;0.50;;;16.50;66.70;;;;;;5153671;27;20042;-69
2023/04/14 12:47:28;;;;;;;1.70;0.50;;;16.50;66.70;;;;;;5153809;27;20494;-70
2023/04/14 12:49:55;;;;;;;0.52;0.30;;;16.50;66.40;;;;;;5135949;27;20038;-70
2023/04/14 12:52:38;;;;;;;0.68;0.38;;;16.50;66.50;;;;;;5154190;27;20126;-72
2023/04/14 12:55:06;;;;;;;0.30;0.30;;;16.60;66.50;;;;;;5153960;27;20410;-69
2023/04/14 12:57:33;;;;;;;0.38;0.30;;;16.70;66.30;;;;;;5154087;27;20389;-69
2023/04/14 12:59:59;;;;;;;1.75;0.40;;;16.70;66.00;;;;;;5153830;27;20043;-71